Time;durP1;ratioP1;P1;durP2;ratioP2;P2;SDS_P1;SDS_P2;PMS_P1;PMS_P2;Temp;Humidity;BMP_temperature;BMP_pressure;BME280_temperature;BME280_humidity;BME280_pressure;Samples;Min_cycle;Max_cycle;Signal;HPM_P1;HPM_P2
2023/08/20 00:00:28;;;;;;;8.35;3.35;;;14.70;99.90;;;;;;4992802;28;20395;-91
2023/08/20 00:03:02;;;;;;;6.75;3.13;;;14.70;99.90;;;;;;4993591;28;20486;-89
2023/08/20 00:05:29;;;;;;;8.38;3.25;;;14.70;99.90;;;;;;4994142;28;20420;-90
2023/08/20 00:07:54;;;;;;;8.38;3.53;;;14.70;99.90;;;;;;5009110;28;20478;-90
2023/08/20 00:10:20;;;;;;;6.10;2.13;;;14.70;99.90;;;;;;4993944;28;20435;-92
2023/08/20 00:12:46;;;;;;;5.07;2.23;;;14.80;99.90;;;;;;4992385;28;20855;-92
2023/08/20 00:15:11;;;;;;;6.45;2.28;;;14.50;99.90;;;;;;4994169;28;20889;-91
2023/08/20 00:17:39;;;;;;;6.65;2.67;;;14.40;99.90;;;;;;5009153;28;20482;-91
2023/08/20 00:20:16;;;;;;;7.38;3.15;;;14.40;99.90;;;;;;5010077;28;20446;-91
2023/08/20 00:22:44;;;;;;;5.60;2.25;;;14.20;99.90;;;;;;5010166;28;20394;-91
2023/08/20 00:25:14;;;;;;;7.15;2.90;;;14.40;99.90;;;;;;4992986;28;20908;-91
2023/08/20 00:27:40;;;;;;;6.55;3.03;;;14.40;99.90;;;;;;4993874;28;20431;-91
2023/08/20 00:30:08;;;;;;;8.00;3.78;;;14.40;99.90;;;;;;5008902;28;20415;-91
2023/08/20 00:32:34;;;;;;;9.97;5.23;;;14.40;99.90;;;;;;5010074;28;20399;-90
2023/08/20 00:34:59;;;;;;;6.05;2.95;;;14.40;99.90;;;;;;5008303;28;20462;-90
2023/08/20 00:37:25;;;;;;;5.88;3.30;;;14.40;99.90;;;;;;5010150;28;20714;-90
2023/08/20 00:39:52;;;;;;;7.03;2.67;;;14.40;99.90;;;;;;4992791;28;20402;-90
2023/08/20 00:42:18;;;;;;;7.60;3.20;;;14.60;99.90;;;;;;4992487;28;20457;-91
2023/08/20 00:44:46;;;;;;;8.10;3.00;;;14.30;99.90;;;;;;4993534;28;20498;-92
2023/08/20 00:47:13;;;;;;;8.43;4.07;;;14.40;99.90;;;;;;4991618;28;20557;-90
2023/08/20 00:49:40;;;;;;;6.35;3.65;;;14.30;99.90;;;;;;5009237;28;20422;-90
2023/08/20 00:52:08;;;;;;;6.30;3.20;;;14.30;99.90;;;;;;4992057;28;20399;-90
2023/08/20 00:54:34;;;;;;;9.00;3.92;;;14.60;99.90;;;;;;4993333;28;20403;-91
2023/08/20 00:57:01;;;;;;;10.77;4.70;;;14.30;99.90;;;;;;5008767;28;20803;-90
2023/08/20 00:59:27;;;;;;;7.83;4.00;;;14.40;99.90;;;;;;4986399;28;20409;-90
2023/08/20 01:01:53;;;;;;;6.72;2.20;;;14.20;99.90;;;;;;4973219;28;20492;-91
2023/08/20 01:04:19;;;;;;;9.67;2.47;;;14.10;99.90;;;;;;4988355;28;20842;-91
2023/08/20 01:07:12;;;;;;;4.38;1.63;;;14.40;99.90;;;;;;4990362;28;20413;-92
2023/08/20 01:09:57;;;;;;;6.80;2.40;;;14.10;99.90;;;;;;4972573;28;20500;-90
2023/08/20 01:12:24;;;;;;;6.43;3.00;;;14.30;99.90;;;;;;4972819;28;20413;-91
2023/08/20 01:14:49;;;;;;;5.93;2.67;;;14.10;99.90;;;;;;4973690;28;20499;-91
2023/08/20 01:17:15;;;;;;;6.30;2.40;;;14.30;99.90;;;;;;4972233;28;20532;-91
2023/08/20 01:19:41;;;;;;;6.88;3.10;;;14.10;99.90;;;;;;4989736;28;20488;-90
2023/08/20 01:22:40;;;;;;;7.30;3.15;;;14.30;99.90;;;;;;4971956;28;20397;-90
2023/08/20 01:25:27;;;;;;;7.18;3.28;;;14.10;99.90;;;;;;4973357;28;20417;-91
2023/08/20 01:28:07;;;;;;;7.63;3.30;;;14.10;99.90;;;;;;4989560;28;20597;-90
2023/08/20 01:30:34;;;;;;;7.68;3.60;;;14.40;99.90;;;;;;4971937;28;20500;-90
2023/08/20 01:33:00;;;;;;;6.38;3.03;;;14.10;99.90;;;;;;4973934;28;20969;-91
2023/08/20 01:35:26;;;;;;;7.65;4.30;;;14.10;99.90;;;;;;4988067;28;20833;-91
2023/08/20 01:37:52;;;;;;;6.68;4.50;;;14.50;99.90;;;;;;4973358;28;20810;-91
2023/08/20 01:40:18;;;;;;;8.50;5.22;;;14.10;99.90;;;;;;4972407;28;20405;-91
2023/08/20 01:42:43;;;;;;;7.57;4.15;;;14.10;99.90;;;;;;4972432;28;20428;-92
2023/08/20 01:45:10;;;;;;;10.07;5.00;;;14.00;99.90;;;;;;4973378;28;21020;-90
2023/08/20 01:47:36;;;;;;;13.82;7.35;;;14.40;99.90;;;;;;4971773;28;20424;-91
2023/08/20 01:50:02;;;;;;;15.27;8.85;;;13.90;99.90;;;;;;4973292;28;20405;-89
2023/08/20 01:52:29;;;;;;;9.10;5.40;;;14.10;99.90;;;;;;4971482;28;20943;-90
2023/08/20 01:54:55;;;;;;;7.05;4.57;;;14.40;99.90;;;;;;4975336;28;20899;-90
2023/08/20 01:57:20;;;;;;;5.97;4.07;;;13.90;99.90;;;;;;4976207;28;20910;-90
2023/08/20 01:59:47;;;;;;;6.45;4.20;;;14.00;99.90;;;;;;4976798;28;20408;-90
2023/08/20 02:02:13;;;;;;;7.85;4.85;;;14.30;99.90;;;;;;4976555;28;20419;-90
2023/08/20 02:04:38;;;;;;;9.40;5.20;;;14.00;99.90;;;;;;4975357;28;20413;-91
2023/08/20 02:07:04;;;;;;;7.97;5.38;;;13.70;99.90;;;;;;4977243;28;20886;-91
2023/08/20 02:09:30;;;;;;;8.77;4.77;;;13.90;99.90;;;;;;4974930;28;20412;-91
2023/08/20 02:11:55;;;;;;;12.20;5.60;;;14.30;99.90;;;;;;4993270;28;21013;-91
2023/08/20 02:14:21;;;;;;;9.48;5.22;;;14.00;99.90;;;;;;4975172;28;20826;-91
2023/08/20 02:16:47;;;;;;;9.97;5.50;;;14.10;99.90;;;;;;4975998;28;20977;-91
2023/08/20 02:19:14;;;;;;;9.53;5.67;;;14.10;99.90;;;;;;4976025;28;20499;-91
2023/08/20 02:21:40;;;;;;;8.98;6.22;;;14.00;99.90;;;;;;4975417;28;20412;-90
2023/08/20 02:24:06;;;;;;;8.00;4.90;;;14.00;99.90;;;;;;4992712;28;20421;-91
2023/08/20 02:26:32;;;;;;;8.68;5.82;;;14.00;99.90;;;;;;4974455;28;20454;-92
2023/08/20 02:28:57;;;;;;;9.03;5.83;;;14.00;99.90;;;;;;4976604;28;20436;-91
2023/08/20 02:31:23;;;;;;;5.50;4.57;;;14.00;99.90;;;;;;4974756;28;20417;-91
2023/08/20 02:33:49;;;;;;;11.90;6.53;;;14.00;99.90;;;;;;4976479;28;20466;-91
2023/08/20 02:36:15;;;;;;;8.73;6.13;;;14.00;99.90;;;;;;4975267;28;20444;-91
2023/08/20 02:38:41;;;;;;;11.65;6.20;;;14.00;99.90;;;;;;4975766;28;20502;-90
2023/08/20 02:41:06;;;;;;;6.35;4.43;;;14.00;99.90;;;;;;4975895;28;20866;-90
2023/08/20 02:43:32;;;;;;;11.53;6.00;;;14.00;99.90;;;;;;4974631;28;20989;-89
2023/08/20 02:45:58;;;;;;;10.37;5.93;;;13.90;99.90;;;;;;4976212;28;20460;-91
2023/08/20 02:48:26;;;;;;;14.18;8.30;;;13.90;99.90;;;;;;4974337;28;20468;-90
2023/08/20 02:50:55;;;;;;;12.07;7.70;;;14.00;99.90;;;;;;4976396;28;20409;-91
2023/08/20 02:53:22;;;;;;;12.20;7.03;;;14.00;99.90;;;;;;5000040;28;20958;-90
2023/08/20 02:55:47;;;;;;;11.90;6.70;;;13.90;99.90;;;;;;4995067;28;20411;-90
2023/08/20 02:58:13;;;;;;;10.90;7.43;;;13.90;99.90;;;;;;4995313;28;20539;-91
2023/08/20 03:00:39;;;;;;;13.18;8.88;;;14.00;99.90;;;;;;5010901;28;20406;-91
2023/08/20 03:03:07;;;;;;;14.45;8.57;;;13.90;99.90;;;;;;4995531;28;20411;-91
2023/08/20 03:05:33;;;;;;;10.10;7.45;;;14.00;99.90;;;;;;4992297;28;20791;-92
2023/08/20 03:07:59;;;;;;;10.82;7.40;;;13.90;99.90;;;;;;5011533;28;20474;-91
2023/08/20 03:10:26;;;;;;;11.77;6.93;;;14.20;99.90;;;;;;4993974;28;20443;-90
2023/08/20 03:12:52;;;;;;;13.05;8.43;;;13.90;99.90;;;;;;4994828;28;20411;-91
2023/08/20 03:15:18;;;;;;;13.40;9.07;;;13.90;99.90;;;;;;4994205;28;20410;-91
2023/08/20 03:17:44;;;;;;;14.00;9.45;;;13.90;99.90;;;;;;5010048;28;20419;-90
2023/08/20 03:20:10;;;;;;;13.30;8.25;;;13.90;99.90;;;;;;4994504;28;20428;-91
2023/08/20 03:22:37;;;;;;;8.68;6.30;;;13.90;99.90;;;;;;4993170;28;20529;-90
2023/08/20 03:25:03;;;;;;;11.52;7.93;;;13.90;99.90;;;;;;4995031;28;20883;-91
2023/08/20 03:27:29;;;;;;;11.15;8.15;;;13.90;99.90;;;;;;4993009;28;20442;-91
2023/08/20 03:29:55;;;;;;;11.52;8.45;;;13.90;99.90;;;;;;4994460;28;20788;-91
2023/08/20 03:32:21;;;;;;;12.48;9.27;;;14.30;99.90;;;;;;4993835;28;20411;-90
2023/08/20 03:34:46;;;;;;;17.07;10.90;;;14.10;99.90;;;;;;5010615;28;20945;-90
2023/08/20 03:37:12;;;;;;;17.38;10.93;;;13.90;99.90;;;;;;4993878;28;20436;-90
2023/08/20 03:39:38;;;;;;;11.80;8.73;;;13.90;99.90;;;;;;4993192;28;20480;-91
2023/08/20 03:42:04;;;;;;;12.03;7.73;;;13.90;99.90;;;;;;5011189;28;20419;-90
2023/08/20 03:44:31;;;;;;;7.60;6.28;;;13.80;99.90;;;;;;5009017;28;20701;-91
2023/08/20 03:46:57;;;;;;;14.18;10.50;;;13.80;99.90;;;;;;5011068;28;20482;-90
2023/08/20 03:49:23;;;;;;;15.35;11.02;;;13.80;99.90;;;;;;4993482;28;20841;-92
2023/08/20 03:51:48;;;;;;;13.25;10.15;;;13.90;99.90;;;;;;5010447;28;20486;-91
2023/08/20 03:54:14;;;;;;;11.67;8.33;;;13.90;99.90;;;;;;4993962;28;20403;-90
2023/08/20 03:56:40;;;;;;;12.13;8.20;;;13.90;99.90;;;;;;4993094;28;20911;-91
2023/08/20 03:59:06;;;;;;;20.63;9.73;;;14.00;99.90;;;;;;4993958;28;20407;-92
2023/08/20 04:01:32;;;;;;;14.33;10.67;;;13.80;99.90;;;;;;4992628;28;20480;-90
2023/08/20 04:03:58;;;;;;;16.60;10.90;;;13.80;99.90;;;;;;5010207;28;20415;-90
2023/08/20 04:06:23;;;;;;;8.30;7.03;;;13.80;99.90;;;;;;4992561;28;20403;-90
2023/08/20 04:08:49;;;;;;;9.77;7.65;;;13.70;99.90;;;;;;4993512;28;20435;-90
2023/08/20 04:11:15;;;;;;;9.20;7.40;;;13.70;99.90;;;;;;4992743;28;20414;-91
2023/08/20 04:13:43;;;;;;;12.27;8.57;;;13.70;99.90;;;;;;4993306;28;20411;-90
2023/08/20 04:16:09;;;;;;;9.48;6.63;;;13.70;99.90;;;;;;4993325;28;20760;-91
2023/08/20 04:18:35;;;;;;;8.87;6.50;;;13.70;99.90;;;;;;4992000;28;20450;-91
2023/08/20 04:21:01;;;;;;;10.30;7.72;;;13.70;99.90;;;;;;4993671;28;20419;-89
2023/08/20 04:23:26;;;;;;;11.32;8.00;;;13.70;99.90;;;;;;4991974;28;20912;-92
2023/08/20 04:25:52;;;;;;;13.33;8.80;;;13.90;99.90;;;;;;4993841;28;20426;-90
2023/08/20 04:28:18;;;;;;;9.25;7.63;;;13.70;99.90;;;;;;5003701;28;20447;-91
2023/08/20 04:30:47;;;;;;;10.37;8.00;;;13.70;99.90;;;;;;4973616;28;20987;-91
2023/08/20 04:33:15;;;;;;;12.82;9.15;;;13.70;99.90;;;;;;4973317;28;20878;-90
2023/08/20 04:35:41;;;;;;;12.55;9.23;;;13.60;99.90;;;;;;4973052;28;20476;-91
2023/08/20 04:38:07;;;;;;;20.20;11.95;;;13.70;99.90;;;;;;4973822;28;20492;-90
2023/08/20 04:40:33;;;;;;;12.30;9.57;;;14.00;99.90;;;;;;4972453;28;20502;-92
2023/08/20 04:42:59;;;;;;;18.77;12.07;;;13.70;99.90;;;;;;4973777;28;20408;-92
2023/08/20 04:45:24;;;;;;;14.73;10.80;;;14.30;99.90;;;;;;4972650;28;20420;-91
2023/08/20 04:47:50;;;;;;;13.77;10.07;;;13.90;99.90;;;;;;4973819;28;20428;-90
2023/08/20 04:50:16;;;;;;;15.25;10.25;;;13.80;99.90;;;;;;4971495;28;20897;-90
2023/08/20 04:52:53;;;;;;;18.27;11.30;;;13.70;99.90;;;;;;4973885;28;20715;-90
2023/08/20 05:06:37;;;;;;;15.10;9.80;;;13.90;99.90;;;;;;4999971;28;20881;-90
2023/08/20 05:09:03;;;;;;;12.20;9.27;;;14.00;99.90;;;;;;4988150;28;20520;-91
2023/08/20 05:11:31;;;;;;;17.80;11.35;;;14.10;99.90;;;;;;4972410;28;20783;-91
2023/08/20 05:13:57;;;;;;;11.90;9.57;;;14.30;99.90;;;;;;4988844;28;20404;-91
2023/08/20 05:16:22;;;;;;;15.27;9.30;;;14.50;99.90;;;;;;4971922;28;20984;-90
2023/08/20 05:18:48;;;;;;;17.52;11.35;;;14.40;99.90;;;;;;4973250;28;20417;-91
2023/08/20 05:21:14;;;;;;;16.38;11.45;;;14.60;99.90;;;;;;4988762;28;21011;-91
2023/08/20 05:23:40;;;;;;;16.70;11.00;;;14.70;99.90;;;;;;4992246;28;20923;-90
2023/08/20 05:26:07;;;;;;;16.13;11.03;;;14.80;99.90;;;;;;4992037;28;20510;-90
2023/08/20 05:28:33;;;;;;;15.38;10.65;;;14.90;99.90;;;;;;4985764;28;20435;-91
2023/08/20 05:30:59;;;;;;;21.25;12.80;;;15.10;99.90;;;;;;4986823;28;20415;-92
2023/08/20 05:33:25;;;;;;;15.68;9.93;;;15.20;99.90;;;;;;4982208;28;20545;-90
2023/08/20 05:35:51;;;;;;;17.67;11.20;;;15.30;99.90;;;;;;5003103;28;20454;-90
2023/08/20 05:38:17;;;;;;;17.07;11.53;;;15.20;99.90;;;;;;4982137;28;20405;-91
2023/08/20 05:40:43;;;;;;;20.13;11.85;;;15.60;99.90;;;;;;4977008;28;20416;-92
2023/08/20 05:43:09;;;;;;;16.73;11.47;;;15.80;99.90;;;;;;4975783;28;20555;-90
2023/08/20 05:45:35;;;;;;;21.05;11.52;;;15.90;99.90;;;;;;4977112;28;20957;-91
2023/08/20 05:48:01;;;;;;;25.02;11.68;;;16.10;99.90;;;;;;4975739;28;20439;-92
2023/08/20 05:50:26;;;;;;;14.85;10.02;;;16.20;99.90;;;;;;4975974;28;20405;-92
2023/08/20 05:52:53;;;;;;;20.15;10.55;;;16.40;99.90;;;;;;4976377;28;20412;-91
2023/08/20 05:55:19;;;;;;;20.55;10.85;;;16.80;99.90;;;;;;4975869;28;20420;-91
2023/08/20 05:57:45;;;;;;;17.92;10.07;;;16.90;99.90;;;;;;4976675;28;20408;-91
2023/08/20 06:00:11;;;;;;;19.80;10.80;;;17.00;99.90;;;;;;4975168;28;20500;-91
2023/08/20 06:02:37;;;;;;;19.80;10.25;;;17.00;99.90;;;;;;4976299;28;20444;-92
2023/08/20 06:05:04;;;;;;;17.75;10.02;;;17.10;99.90;;;;;;4975680;28;20571;-91
2023/08/20 06:07:31;;;;;;;18.48;10.60;;;17.30;99.90;;;;;;4975880;28;20945;-91
2023/08/20 06:09:57;;;;;;;16.33;9.20;;;17.50;99.90;;;;;;4975930;28;20487;-90
2023/08/20 06:12:23;;;;;;;19.08;9.45;;;18.30;99.90;;;;;;4975640;28;20421;-91
2023/08/20 06:14:49;;;;;;;20.23;9.05;;;17.70;99.90;;;;;;4975886;28;20404;-92
2023/08/20 06:17:14;;;;;;;19.35;9.02;;;17.80;99.90;;;;;;4974957;28;20412;-92
2023/08/20 06:19:40;;;;;;;17.57;8.23;;;17.80;99.90;;;;;;4975339;28;20789;-92
2023/08/20 06:22:06;;;;;;;15.88;7.93;;;18.10;99.90;;;;;;4975138;28;20484;-92
2023/08/20 06:24:32;;;;;;;17.88;8.80;;;18.70;99.90;;;;;;4976101;28;20455;-92
2023/08/20 06:26:57;;;;;;;17.10;8.57;;;18.40;99.90;;;;;;4974813;28;20439;-93
2023/08/20 06:29:23;;;;;;;19.58;8.18;;;18.50;99.90;;;;;;4986327;28;20415;-90
2023/08/20 06:31:50;;;;;;;17.93;7.83;;;18.60;99.90;;;;;;4994738;28;20399;-91
2023/08/20 06:34:16;;;;;;;18.25;7.78;;;18.70;99.90;;;;;;4994247;28;20470;-93
2023/08/20 06:36:42;;;;;;;16.08;7.18;;;18.90;99.90;;;;;;4995519;28;20439;-92
2023/08/20 06:39:08;;;;;;;17.90;6.90;;;19.00;99.90;;;;;;4993759;28;20404;-91
2023/08/20 06:41:34;;;;;;;18.15;7.00;;;19.40;99.90;;;;;;4995167;28;20442;-92
2023/08/20 06:44:00;;;;;;;18.27;7.33;;;19.20;99.90;;;;;;4994453;28;20406;-92
2023/08/20 06:46:25;;;;;;;18.92;6.75;;;19.30;99.90;;;;;;4994731;28;20408;-92
2023/08/20 06:48:51;;;;;;;15.98;6.10;;;19.40;99.90;;;;;;4994196;28;20488;-92
2023/08/20 06:51:21;;;;;;;17.00;6.47;;;19.90;99.90;;;;;;4994571;28;20406;-91
2023/08/20 06:53:47;;;;;;;18.20;6.57;;;20.20;99.90;;;;;;4994662;28;20902;-91
2023/08/20 06:56:13;;;;;;;15.65;6.07;;;19.70;99.90;;;;;;4993965;28;20444;-91
2023/08/20 06:58:40;;;;;;;19.33;6.23;;;20.10;99.90;;;;;;4995049;28;20462;-92
2023/08/20 07:01:09;;;;;;;17.63;6.27;;;19.50;99.90;;;;;;4993885;28;20935;-91
2023/08/20 07:03:37;;;;;;;16.45;5.70;;;20.00;99.90;;;;;;4993958;28;20426;-91
2023/08/20 07:06:03;;;;;;;17.98;6.57;;;20.10;99.90;;;;;;4993988;28;20411;-91
2023/08/20 07:08:29;;;;;;;16.97;6.10;;;20.10;99.90;;;;;;4993751;28;20439;-92
2023/08/20 07:10:55;;;;;;;15.43;5.95;;;20.40;99.90;;;;;;4994462;28;20911;-91
2023/08/20 07:13:22;;;;;;;15.25;5.78;;;20.30;99.90;;;;;;4993613;28;20391;-92
2023/08/20 07:15:47;;;;;;;18.60;6.50;;;20.30;99.90;;;;;;4994569;28;20498;-91
2023/08/20 07:18:14;;;;;;;17.33;6.00;;;20.40;99.90;;;;;;4993363;28;20669;-92
2023/08/20 07:20:44;;;;;;;17.87;6.33;;;20.50;99.90;;;;;;4994774;28;20862;-90
2023/08/20 07:23:10;;;;;;;16.73;6.80;;;20.50;99.90;;;;;;5009849;28;20410;-91
2023/08/20 07:25:37;;;;;;;16.88;5.93;;;20.40;99.90;;;;;;4993922;28;20402;-90
2023/08/20 07:28:07;;;;;;;16.33;5.97;;;20.70;99.90;;;;;;4994245;28;20881;-91
2023/08/20 07:30:32;;;;;;;17.27;5.85;;;20.70;99.90;;;;;;4993552;28;20886;-91
2023/08/20 07:32:58;;;;;;;16.73;6.20;;;20.90;99.90;;;;;;4993804;28;20423;-91
2023/08/20 07:35:24;;;;;;;15.73;6.03;;;21.00;99.90;;;;;;4992719;28;20433;-89
2023/08/20 07:37:50;;;;;;;14.95;5.30;;;21.40;99.90;;;;;;4994105;28;20411;-90
2023/08/20 07:40:16;;;;;;;17.17;5.60;;;21.20;99.90;;;;;;4993084;28;20466;-91
2023/08/20 07:42:42;;;;;;;14.70;5.00;;;21.20;99.90;;;;;;4994092;28;20409;-91
2023/08/20 07:45:08;;;;;;;13.97;4.50;;;21.30;99.90;;;;;;4993700;28;20407;-91
2023/08/20 07:47:37;;;;;;;17.70;5.32;;;21.30;99.90;;;;;;4990336;28;21149;-91
2023/08/20 07:50:04;;;;;;;14.35;4.45;;;21.40;99.90;;;;;;4993613;28;20407;-90
2023/08/20 07:52:31;;;;;;;14.77;4.68;;;21.50;99.90;;;;;;4991929;28;20863;-91
2023/08/20 07:54:56;;;;;;;14.57;5.28;;;21.50;99.90;;;;;;4993733;28;20486;-91
2023/08/20 07:57:23;;;;;;;14.20;4.23;;;21.70;99.90;;;;;;4992730;28;20507;-91
2023/08/20 07:59:49;;;;;;;15.90;5.13;;;21.70;99.90;;;;;;4993372;28;20410;-90
2023/08/20 08:02:15;;;;;;;15.32;5.05;;;22.00;99.90;;;;;;4993139;28;20482;-92
2023/08/20 08:04:42;;;;;;;13.90;4.80;;;21.80;99.90;;;;;;4992619;28;20439;-91
2023/08/20 08:07:08;;;;;;;16.20;4.63;;;21.90;99.90;;;;;;4992934;28;20418;-91
2023/08/20 08:09:34;;;;;;;11.93;4.20;;;22.30;99.90;;;;;;4991929;28;20441;-92
2023/08/20 08:12:00;;;;;;;15.75;5.65;;;22.20;99.90;;;;;;5009779;28;20943;-91
2023/08/20 08:14:26;;;;;;;15.30;5.88;;;22.00;99.90;;;;;;4992107;28;20705;-90
2023/08/20 08:16:52;;;;;;;23.00;10.70;;;22.40;99.90;;;;;;4993580;28;20399;-91
2023/08/20 08:19:19;;;;;;;39.00;29.35;;;22.30;99.90;;;;;;4992742;28;20430;-90
2023/08/20 08:21:46;;;;;;;18.08;4.88;;;22.20;99.90;;;;;;4992875;28;20480;-91
2023/08/20 08:24:12;;;;;;;13.57;4.40;;;22.50;99.90;;;;;;5025718;28;20768;-91
2023/08/20 08:26:41;;;;;;;13.90;3.90;;;23.10;99.90;;;;;;5008908;28;20448;-93
2023/08/20 08:29:08;;;;;;;12.18;4.40;;;22.30;99.90;;;;;;4992841;28;20459;-90
2023/08/20 08:31:36;;;;;;;14.23;4.63;;;22.50;99.90;;;;;;4992050;28;20769;-92
2023/08/20 08:34:03;;;;;;;14.35;3.88;;;22.70;99.90;;;;;;4992995;28;20403;-90
2023/08/20 08:36:29;;;;;;;11.73;3.53;;;22.90;99.90;;;;;;4992280;28;20399;-92
2023/08/20 08:38:54;;;;;;;10.32;3.42;;;23.20;99.90;;;;;;4993001;28;20418;-91
2023/08/20 08:41:25;;;;;;;14.20;4.93;;;23.50;99.90;;;;;;4992475;28;20506;-91
2023/08/20 08:43:51;;;;;;;16.88;8.57;;;23.60;99.90;;;;;;4991992;28;20788;-91
2023/08/20 08:46:17;;;;;;;18.83;7.95;;;23.30;99.90;;;;;;4992784;28;20407;-90
2023/08/20 08:48:44;;;;;;;13.02;3.42;;;23.10;99.90;;;;;;4991804;28;20480;-93
2023/08/20 08:51:12;;;;;;;10.80;2.10;;;23.00;99.90;;;;;;4993076;28;20469;-92
2023/08/20 08:53:38;;;;;;;12.40;2.40;;;23.20;99.90;;;;;;4992045;28;20405;-90
2023/08/20 08:56:05;;;;;;;10.60;2.57;;;23.30;99.90;;;;;;4992332;28;20632;-89
2023/08/20 08:58:33;;;;;;;9.70;2.35;;;23.50;99.90;;;;;;4993355;28;20414;-92
2023/08/20 09:01:00;;;;;;;12.40;3.20;;;23.70;99.90;;;;;;4992390;28;20399;-95
2023/08/20 09:03:25;;;;;;;11.68;3.53;;;24.10;99.90;;;;;;4992364;28;20465;-92
2023/08/20 09:06:03;;;;;;;12.52;3.17;;;24.00;99.90;;;;;;4991477;28;20407;-94
2023/08/20 09:08:35;;;;;;;10.75;1.95;;;24.40;99.90;;;;;;4993657;28;20435;-91
2023/08/20 09:11:02;;;;;;;7.93;1.73;;;24.40;99.90;;;;;;4994107;28;20921;-92
2023/08/20 09:13:37;;;;;;;10.07;1.80;;;24.50;99.90;;;;;;4994452;28;20460;-90
2023/08/20 09:16:07;;;;;;;9.05;1.70;;;24.70;99.90;;;;;;5009025;28;20935;-94
2023/08/20 09:18:38;;;;;;;15.73;6.33;;;24.90;99.90;;;;;;4992867;28;20415;-90
2023/08/20 09:21:08;;;;;;;13.00;4.68;;;25.00;99.90;;;;;;5010407;28;20492;-93
2023/08/20 09:23:37;;;;;;;13.32;3.88;;;25.00;99.90;;;;;;4992945;28;20407;-93
2023/08/20 09:26:05;;;;;;;12.30;3.38;;;24.60;99.90;;;;;;4992764;28;20418;-88
2023/08/20 09:28:42;;;;;;;9.57;2.08;;;25.20;99.90;;;;;;5007693;28;20469;-91
2023/08/20 09:31:07;;;;;;;9.80;1.98;;;25.10;99.90;;;;;;4993172;28;20787;-92
2023/08/20 09:33:33;;;;;;;10.00;1.80;;;24.60;99.90;;;;;;5009541;28;20399;-91
2023/08/20 09:35:58;;;;;;;11.03;1.70;;;24.70;99.90;;;;;;4991941;28;20464;-89
2023/08/20 09:38:24;;;;;;;7.77;1.43;;;24.70;99.90;;;;;;4993266;28;20568;-92
2023/08/20 09:40:52;;;;;;;8.88;1.70;;;24.30;99.90;;;;;;5008718;28;20816;-92
2023/08/20 09:43:19;;;;;;;10.80;1.90;;;24.00;99.90;;;;;;5009496;28;20414;-91
2023/08/20 09:45:47;;;;;;;8.70;1.60;;;24.00;99.90;;;;;;4999918;28;20417;-91
2023/08/20 09:48:18;;;;;;;9.85;1.50;;;23.90;99.90;;;;;;5026362;28;20457;-91
2023/08/20 09:50:46;;;;;;;9.23;1.35;;;24.30;99.90;;;;;;5008889;28;20403;-92
2023/08/20 09:53:32;;;;;;;7.40;1.05;;;24.40;99.90;;;;;;4992957;28;20514;-91
2023/08/20 09:56:22;;;;;;;8.05;1.10;;;24.50;99.90;;;;;;4976414;28;20412;-91
2023/08/20 09:58:50;;;;;;;7.65;1.08;;;24.70;99.90;;;;;;4990348;28;20449;-93
2023/08/20 10:01:16;;;;;;;5.87;0.83;;;24.80;99.90;;;;;;5010415;28;20434;-92
2023/08/20 10:03:42;;;;;;;5.83;0.83;;;25.20;98.30;;;;;;5009247;28;20411;-94
2023/08/20 10:06:09;;;;;;;7.60;0.73;;;25.50;95.00;;;;;;5009992;28;20419;-93
2023/08/20 10:08:36;;;;;;;7.43;0.80;;;25.80;80.90;;;;;;4992812;28;20431;-91
2023/08/20 10:11:02;;;;;;;7.28;1.50;;;26.00;90.10;;;;;;4992304;28;20403;-92
2023/08/20 10:13:31;;;;;;;9.30;1.30;;;26.20;92.70;;;;;;5008200;28;20411;-93
2023/08/20 10:15:57;;;;;;;5.45;0.90;;;26.00;82.20;;;;;;4993747;28;20468;-91
2023/08/20 10:18:22;;;;;;;5.72;0.90;;;26.10;83.70;;;;;;5012562;28;20810;-90
2023/08/20 10:20:52;;;;;;;5.45;0.70;;;26.30;72.30;;;;;;5026926;28;20411;-93
2023/08/20 10:23:24;;;;;;;6.13;1.05;;;26.20;73.90;;;;;;4996446;28;20415;-95
2023/08/20 10:25:52;;;;;;;6.63;0.88;;;26.50;81.70;;;;;;4996278;28;20418;-93
2023/08/20 10:28:29;;;;;;;9.98;1.50;;;27.00;72.00;;;;;;4993790;28;20431;-93
2023/08/20 10:31:11;;;;;;;8.05;0.90;;;26.90;67.30;;;;;;5007239;28;20494;-91
2023/08/20 10:33:48;;;;;;;6.50;0.90;;;26.60;71.60;;;;;;4991198;28;20447;-91
2023/08/20 10:36:22;;;;;;;21.23;1.83;;;26.60;69.30;;;;;;5012326;28;20407;-93
2023/08/20 10:38:49;;;;;;;5.40;0.80;;;26.90;66.10;;;;;;4994242;28;20474;-92
2023/08/20 10:41:18;;;;;;;5.47;0.80;;;27.30;63.90;;;;;;4994917;28;20426;-94
2023/08/20 10:43:48;;;;;;;4.15;0.50;;;27.60;63.70;;;;;;4994775;28;20399;-93
2023/08/20 10:46:22;;;;;;;7.00;0.77;;;27.90;66.40;;;;;;4994684;28;20411;-93
2023/08/20 10:48:52;;;;;;;5.05;0.60;;;28.30;62.80;;;;;;4996997;28;20530;-93
2023/08/20 10:51:24;;;;;;;5.10;0.60;;;28.60;58.20;;;;;;4993893;28;20461;-93
2023/08/20 10:54:04;;;;;;;5.00;0.68;;;29.00;61.00;;;;;;4995603;28;20894;-93
2023/08/20 10:57:00;;;;;;;7.07;0.85;;;29.40;57.30;;;;;;5011073;28;20926;-94
2023/08/20 10:59:30;;;;;;;5.03;0.77;;;29.40;54.90;;;;;;4977539;28;20426;-94
2023/08/20 11:01:58;;;;;;;4.78;0.60;;;29.30;55.50;;;;;;4995197;28;20422;-93
2023/08/20 11:04:32;;;;;;;4.13;0.60;;;29.40;56.00;;;;;;4993785;28;20407;-93
2023/08/20 11:06:59;;;;;;;5.83;0.70;;;29.50;55.80;;;;;;4994627;28;20525;-93
2023/08/20 11:09:39;;;;;;;4.57;0.50;;;29.80;54.60;;;;;;4994570;28;20454;-94
2023/08/20 11:12:05;;;;;;;4.03;0.40;;;30.00;52.80;;;;;;5008126;28;20411;-92
2023/08/20 11:14:31;;;;;;;4.80;0.60;;;30.20;54.30;;;;;;4992225;28;20941;-90
2023/08/20 11:16:57;;;;;;;3.40;0.60;;;30.30;52.40;;;;;;5009774;28;20942;-93
2023/08/20 11:19:23;;;;;;;5.05;0.47;;;30.40;51.40;;;;;;5009261;28;20554;-93
2023/08/20 11:21:50;;;;;;;4.57;0.52;;;30.50;49.10;;;;;;5010294;28;20415;-93
2023/08/20 11:24:16;;;;;;;5.13;0.70;;;30.70;49.60;;;;;;4993858;28;20406;-94
2023/08/20 11:26:43;;;;;;;5.45;0.70;;;30.90;48.10;;;;;;5007779;28;20486;-94
2023/08/20 11:29:12;;;;;;;4.03;0.70;;;31.20;49.40;;;;;;5008676;28;20792;-88
2023/08/20 11:31:38;;;;;;;3.63;0.63;;;31.20;47.20;;;;;;5009049;28;20465;-92
2023/08/20 11:34:04;;;;;;;5.23;0.97;;;31.10;46.70;;;;;;5008148;28;20411;-92
2023/08/20 11:36:31;;;;;;;5.43;2.00;;;31.10;50.60;;;;;;5009158;28;20422;-92
2023/08/20 11:38:57;;;;;;;5.53;0.60;;;31.30;50.20;;;;;;5008221;28;20399;-89
2023/08/20 11:41:24;;;;;;;4.85;0.98;;;31.60;48.40;;;;;;5009530;28;20415;-89
2023/08/20 11:43:50;;;;;;;5.35;1.25;;;31.40;49.50;;;;;;4991592;28;20458;-90
2023/08/20 11:46:19;;;;;;;7.78;2.40;;;31.00;47.50;;;;;;5009026;28;20403;-88
2023/08/20 11:49:00;;;;;;;5.75;1.75;;;30.70;47.50;;;;;;5008435;28;20486;-91
2023/08/20 11:51:27;;;;;;;5.15;0.70;;;30.70;50.50;;;;;;4991711;28;21061;-92
2023/08/20 11:53:52;;;;;;;5.30;0.70;;;30.80;51.00;;;;;;4992342;28;20462;-89
2023/08/20 11:56:18;;;;;;;4.70;0.60;;;30.80;48.60;;;;;;4991580;28;20875;-94
2023/08/20 11:58:50;;;;;;;5.55;0.77;;;31.10;49.50;;;;;;4992740;28;20407;-91
2023/08/20 12:01:31;;;;;;;3.95;0.60;;;31.40;47.90;;;;;;5021477;27;4735424;-94
2023/08/20 12:04:03;;;;;;;4.45;0.50;;;31.70;48.80;;;;;;5129863;27;20396;-92
2023/08/20 12:06:30;;;;;;;3.47;0.50;;;31.50;46.70;;;;;;5128900;27;20408;-92
2023/08/20 12:08:57;;;;;;;5.82;0.70;;;31.00;47.50;;;;;;5111637;27;20509;-93
2023/08/20 12:11:27;;;;;;;5.55;0.80;;;30.80;50.00;;;;;;5125092;27;20462;-93
2023/08/20 12:13:53;;;;;;;4.30;1.00;;;31.00;52.10;;;;;;5126217;27;20386;-95
2023/08/20 12:16:21;;;;;;;4.38;0.50;;;31.30;48.80;;;;;;5108291;27;20410;-93
2023/08/20 12:18:47;;;;;;;4.10;0.50;;;31.60;48.20;;;;;;5112752;27;20399;-93
2023/08/20 12:21:12;;;;;;;4.63;0.63;;;32.00;50.00;;;;;;5109319;27;20437;-94
2023/08/20 12:23:38;;;;;;;5.20;1.35;;;31.90;46.10;;;;;;5110175;27;20405;-92
2023/08/20 12:26:04;;;;;;;7.33;1.77;;;31.50;47.00;;;;;;5109974;27;20473;-92
2023/08/20 12:28:46;;;;;;;;;;;;;;;;;;;;;
2023/08/20 12:31:36;;;;;;;5.75;1.48;;;30.90;50.70;;;;;;5043313;28;20472;-89
2023/08/20 12:34:03;;;;;;;5.33;1.20;;;31.30;51.50;;;;;;5009301;28;20434;-91
2023/08/20 12:36:28;;;;;;;5.50;0.98;;;31.70;48.50;;;;;;5009062;28;20928;-92
2023/08/20 12:38:55;;;;;;;6.07;1.17;;;31.90;47.20;;;;;;5009542;28;20453;-90
2023/08/20 12:41:20;;;;;;;6.13;1.10;;;31.60;44.70;;;;;;5023852;28;20434;-89
2023/08/20 12:43:46;;;;;;;6.00;0.80;;;31.20;49.60;;;;;;5026158;28;20425;-91
2023/08/20 12:46:13;;;;;;;4.73;0.50;;;31.20;47.80;;;;;;5007496;28;20422;-92
2023/08/20 12:48:39;;;;;;;5.90;0.80;;;31.30;48.30;;;;;;5026316;28;20403;-93
2023/08/20 12:51:05;;;;;;;8.70;0.70;;;31.30;46.80;;;;;;5007965;28;20908;-92
2023/08/20 12:53:32;;;;;;;5.88;0.88;;;31.60;49.90;;;;;;5042155;28;20422;-92